createdAt,value
2022-12-08T00:00:29.609Z,5.21
2022-12-08T00:02:56.380Z,5.37
2022-12-08T00:05:23.065Z,5.63
2022-12-08T00:07:55.254Z,6.21
2022-12-08T00:10:48.397Z,6.56
2022-12-08T00:13:12.686Z,6.31
2022-12-08T00:15:39.351Z,6.74
2022-12-08T00:18:11.794Z,6.26
2022-12-08T00:20:42.352Z,6.00
2022-12-08T00:23:11.755Z,5.57
2022-12-08T00:25:38.963Z,6.02
2022-12-08T00:28:06.446Z,6.30
2022-12-08T00:30:35.121Z,6.59
2022-12-08T00:33:02.641Z,5.80
2022-12-08T00:35:29.654Z,6.07
2022-12-08T00:38:00.620Z,6.58
2022-12-08T00:40:28.610Z,6.23
2022-12-08T00:42:55.437Z,6.28
2022-12-08T00:45:22.063Z,5.82
2022-12-08T00:47:48.734Z,6.29
2022-12-08T00:50:17.891Z,6.55
2022-12-08T00:52:45.368Z,6.84
2022-12-08T00:58:33.038Z,6.19
2022-12-08T01:01:03.268Z,6.30
2022-12-08T01:03:30.989Z,6.41
2022-12-08T01:09:13.473Z,6.39
2022-12-08T01:11:44.565Z,6.18
2022-12-08T01:14:12.038Z,6.31
2022-12-08T01:16:39.174Z,6.60
2022-12-08T01:19:13.230Z,6.31
2022-12-08T01:21:41.834Z,6.91
2022-12-08T01:24:08.705Z,7.87
2022-12-08T01:26:36.188Z,7.67
2022-12-08T01:29:07.510Z,7.29
2022-12-08T01:31:35.089Z,7.88
2022-12-08T01:34:02.006Z,8.45
2022-12-08T01:36:28.517Z,8.18
2022-12-08T01:38:55.803Z,8.55
2022-12-08T01:41:22.342Z,8.82
2022-12-08T01:43:49.310Z,8.76
2022-12-08T01:46:19.244Z,8.99
2022-12-08T01:48:45.951Z,8.81
2022-12-08T01:51:12.989Z,8.65
2022-12-08T01:53:39.757Z,8.81
2022-12-08T01:56:07.605Z,8.98
2022-12-08T01:58:36.291Z,9.15
2022-12-08T02:01:05.302Z,9.23
2022-12-08T02:03:34.999Z,9.03
2022-12-08T02:06:04.325Z,8.94
2022-12-08T02:08:31.234Z,8.93
2022-12-08T02:10:59.618Z,8.73
2022-12-08T02:13:26.368Z,7.99
2022-12-08T02:15:53.198Z,7.98
2022-12-08T02:18:20.157Z,8.26
2022-12-08T02:20:48.641Z,7.94
2022-12-08T02:23:17.071Z,6.30
2022-12-08T02:25:43.921Z,6.91
2022-12-08T02:28:10.899Z,6.83
2022-12-08T02:30:41.365Z,6.90
2022-12-08T02:33:08.469Z,6.60
2022-12-08T02:35:40.764Z,6.40
2022-12-08T02:38:10.554Z,6.11
2022-12-08T02:40:38.227Z,6.00
2022-12-08T02:43:05.993Z,5.99
2022-12-08T02:45:32.879Z,6.48
2022-12-08T02:48:02.034Z,6.68
2022-12-08T02:50:29.078Z,6.81
2022-12-08T02:52:55.712Z,6.91
2022-12-08T02:55:23.271Z,7.38
2022-12-08T02:57:53.861Z,7.13
2022-12-08T03:00:21.279Z,7.75
2022-12-08T03:02:48.061Z,6.47
2022-12-08T03:05:14.996Z,5.60
2022-12-08T03:07:43.092Z,6.13
2022-12-08T03:10:12.437Z,6.94
2022-12-08T03:12:39.057Z,6.82
2022-12-08T03:15:06.792Z,7.43
2022-12-08T03:17:34.201Z,7.15
2022-12-08T03:20:03.275Z,6.06
2022-12-08T03:22:30.432Z,6.07
2022-12-08T03:28:12.288Z,6.66
2022-12-08T03:30:40.457Z,5.67
2022-12-08T03:33:07.050Z,5.68
2022-12-08T03:35:33.824Z,5.50
2022-12-08T03:38:00.347Z,5.76
2022-12-08T03:40:27.341Z,6.73
2022-12-08T03:42:54.848Z,7.21
2022-12-08T03:45:22.142Z,7.23
2022-12-08T03:47:48.752Z,7.75
2022-12-08T03:50:15.764Z,7.91
2022-12-08T03:52:42.611Z,7.92
2022-12-08T03:55:12.148Z,7.92
2022-12-08T03:57:40.739Z,7.47
2022-12-08T04:00:07.545Z,7.48
2022-12-08T04:02:34.629Z,7.29
2022-12-08T04:05:01.710Z,7.54
2022-12-08T04:07:28.350Z,6.48
2022-12-08T04:09:55.110Z,6.72
2022-12-08T04:12:22.960Z,7.36
2022-12-08T04:15:08.642Z,7.03
2022-12-08T04:17:55.634Z,7.44
2022-12-08T04:20:23.160Z,7.60
2022-12-08T04:22:54.340Z,7.77
2022-12-08T04:25:25.585Z,7.84
2022-12-08T04:27:52.532Z,7.88
2022-12-08T04:30:19.129Z,7.77
2022-12-08T04:32:49.794Z,7.52
2022-12-08T04:35:21.518Z,7.01
2022-12-08T04:37:49.226Z,6.51
2022-12-08T04:40:15.857Z,6.69
2022-12-08T04:42:48.076Z,7.39
2022-12-08T04:45:14.954Z,7.53
2022-12-08T04:47:42.332Z,7.75
2022-12-08T04:50:10.914Z,7.35
2022-12-08T04:52:38.326Z,6.65
2022-12-08T04:55:05.177Z,7.24
2022-12-08T04:57:32.518Z,7.79
2022-12-08T04:59:59.357Z,7.89
2022-12-08T05:02:26.232Z,7.94
2022-12-08T05:04:52.887Z,8.07
2022-12-08T05:07:19.792Z,8.34
2022-12-08T05:09:50.492Z,8.54
2022-12-08T05:12:17.422Z,8.57
2022-12-08T05:14:44.021Z,8.37
2022-12-08T05:17:11.916Z,7.07
2022-12-08T05:22:48.771Z,7.34
2022-12-08T05:25:15.817Z,7.28
2022-12-08T05:27:42.660Z,7.72
2022-12-08T05:30:12.042Z,7.76
2022-12-08T05:32:41.503Z,7.99
2022-12-08T05:35:11.040Z,7.80
2022-12-08T05:37:38.713Z,7.41
2022-12-08T05:40:12.831Z,6.61
2022-12-08T05:42:43.173Z,7.28
2022-12-08T05:45:14.349Z,7.36
2022-12-08T05:47:41.597Z,7.43
2022-12-08T05:50:21.366Z,7.92
2022-12-08T05:55:56.503Z,8.50
2022-12-08T05:58:24.130Z,8.59
2022-12-08T06:00:58.645Z,8.83
2022-12-08T06:03:25.683Z,8.85
2022-12-08T06:05:56.291Z,8.74
2022-12-08T06:08:24.992Z,8.71
2022-12-08T06:10:53.716Z,8.82
2022-12-08T06:13:21.532Z,8.77
2022-12-08T06:15:50.444Z,8.45
2022-12-08T06:18:20.618Z,8.27
2022-12-08T06:20:50.534Z,6.99
2022-12-08T06:23:25.609Z,7.50
2022-12-08T06:25:53.494Z,7.12
2022-12-08T06:28:24.535Z,7.70
2022-12-08T06:30:57.666Z,7.50
2022-12-08T06:33:25.453Z,7.51
2022-12-08T06:44:18.034Z,7.27
2022-12-08T06:56:01.807Z,7.88
2022-12-08T06:58:38.043Z,7.75
2022-12-08T07:04:28.717Z,7.26
2022-12-08T07:07:15.853Z,7.01
2022-12-08T07:10:11.086Z,6.41
2022-12-08T07:13:33.460Z,5.54
2022-12-08T07:15:37.152Z,5.48
2022-12-08T07:18:06.062Z,5.33
2022-12-08T07:20:35.163Z,5.96
2022-12-08T07:23:03.156Z,6.90
2022-12-08T07:25:30.671Z,7.41
2022-12-08T07:28:03.760Z,6.89
2022-12-08T07:33:26.412Z,7.10
2022-12-08T07:36:10.252Z,7.84
2022-12-08T07:38:55.717Z,8.06
2022-12-08T07:41:26.312Z,8.21
2022-12-08T07:44:12.544Z,7.96
2022-12-08T07:52:46.723Z,7.92
2022-12-08T07:57:54.902Z,7.26
2022-12-08T08:09:14.545Z,8.50
2022-12-08T08:11:42.183Z,8.80
2022-12-08T08:14:14.484Z,8.72
2022-12-08T08:19:44.898Z,8.77
2022-12-08T08:22:11.583Z,8.76
2022-12-08T08:24:44.870Z,8.54
2022-12-08T08:27:13.835Z,8.44
2022-12-08T08:29:42.815Z,8.58
2022-12-08T08:32:12.310Z,8.98
2022-12-08T08:34:48.748Z,9.07
2022-12-08T08:37:23.517Z,8.91
2022-12-08T08:39:50.930Z,8.89
2022-12-08T08:42:18.473Z,8.25
2022-12-08T08:44:50.828Z,8.30
2022-12-08T08:47:18.576Z,8.75
2022-12-08T08:49:49.457Z,9.03
2022-12-08T08:52:17.134Z,8.93
2022-12-08T08:54:44.264Z,8.81
2022-12-08T09:00:05.766Z,8.64
2022-12-08T09:02:35.328Z,8.88
2022-12-08T09:05:02.925Z,8.83
2022-12-08T09:07:31.451Z,8.26
2022-12-08T09:10:01.837Z,7.84
2022-12-08T09:12:30.927Z,8.25
2022-12-08T09:14:58.748Z,8.16
2022-12-08T09:17:25.745Z,8.60
2022-12-08T09:19:52.969Z,8.70
2022-12-08T09:22:19.974Z,8.49
2022-12-08T09:24:47.446Z,8.18
2022-12-08T09:27:15.313Z,8.93
2022-12-08T09:29:44.985Z,8.97
2022-12-08T09:32:11.610Z,8.94
2022-12-08T09:34:39.221Z,9.00
2022-12-08T09:37:09.116Z,9.16
2022-12-08T09:39:37.089Z,8.87
2022-12-08T09:45:08.464Z,8.74
2022-12-08T09:47:36.183Z,8.93
2022-12-08T09:50:07.995Z,9.36
2022-12-08T09:52:42.636Z,9.35
2022-12-08T09:55:09.793Z,9.26
2022-12-08T09:57:37.364Z,9.00
2022-12-08T10:00:05.151Z,9.12
2022-12-08T10:02:32.842Z,8.40
2022-12-08T10:05:00.461Z,8.80
2022-12-08T10:07:27.171Z,9.06
2022-12-08T10:09:56.199Z,8.57
2022-12-08T10:12:23.676Z,8.28
2022-12-08T10:14:54.236Z,8.87
2022-12-08T10:17:22.101Z,7.50
2022-12-08T10:19:49.334Z,7.50
2022-12-08T10:22:18.674Z,7.98
2022-12-08T10:24:45.329Z,7.54
2022-12-08T10:27:14.761Z,6.67
2022-12-08T10:29:44.804Z,6.70
2022-12-08T10:32:12.734Z,7.21
2022-12-08T10:34:41.690Z,8.10
2022-12-08T10:37:09.529Z,8.36
2022-12-08T10:39:41.135Z,8.64
2022-12-08T10:42:10.862Z,8.63
2022-12-08T10:44:37.474Z,8.29
2022-12-08T10:47:04.433Z,8.07
2022-12-08T10:49:33.455Z,8.27
2022-12-08T10:52:02.502Z,8.14
2022-12-08T10:54:30.013Z,8.21
2022-12-08T10:56:59.025Z,7.99
2022-12-08T10:59:28.214Z,8.40
2022-12-08T11:01:57.550Z,8.63
2022-12-08T11:04:28.263Z,9.02
2022-12-08T11:06:57.283Z,8.33
2022-12-08T11:09:24.699Z,8.23
2022-12-08T11:11:52.821Z,8.01
2022-12-08T11:17:46.304Z,7.02
2022-12-08T11:20:07.588Z,7.14
2022-12-08T11:22:41.789Z,7.79
2022-12-08T11:25:08.862Z,8.04
2022-12-08T11:27:39.150Z,8.47
2022-12-08T11:30:12.641Z,7.90
2022-12-08T11:32:43.832Z,7.82
2022-12-08T11:35:10.790Z,7.78
2022-12-08T11:37:37.423Z,6.81
2022-12-08T11:40:04.964Z,7.70
2022-12-08T11:57:52.225Z,9.66
2022-12-08T12:00:19.020Z,9.98
2022-12-08T12:02:48.770Z,9.81
2022-12-08T12:05:23.559Z,10.17
2022-12-08T12:08:01.583Z,10.43
2022-12-08T12:10:28.439Z,10.57
2022-12-08T12:13:03.012Z,10.24
2022-12-08T12:15:30.224Z,10.11
2022-12-08T12:17:58.765Z,10.64
2022-12-08T12:23:12.519Z,10.68
2022-12-08T12:25:42.082Z,9.40
2022-12-08T12:28:09.829Z,8.74
2022-12-08T12:30:37.555Z,9.06
2022-12-08T12:33:11.565Z,8.50
2022-12-08T12:35:38.364Z,8.33
2022-12-08T12:38:08.134Z,9.02
2022-12-08T12:40:35.333Z,7.99
2022-12-08T12:43:03.037Z,8.55
2022-12-08T12:45:30.293Z,9.06
2022-12-08T12:47:59.584Z,8.33
2022-12-08T12:50:29.604Z,9.35
2022-12-08T12:53:00.153Z,9.12
2022-12-08T12:55:29.065Z,8.84
2022-12-08T12:58:01.393Z,9.13
2022-12-08T13:00:28.278Z,9.24
2022-12-08T13:02:57.233Z,9.22
2022-12-08T13:05:24.049Z,8.39
2022-12-08T13:07:53.084Z,9.10
2022-12-08T13:10:21.601Z,9.31
2022-12-08T13:12:50.232Z,9.05
2022-12-08T13:15:20.106Z,9.93
2022-12-08T13:17:49.878Z,9.23
2022-12-08T13:20:19.169Z,9.34
2022-12-08T13:22:47.788Z,9.79
2022-12-08T13:25:15.547Z,10.27
2022-12-08T13:27:42.270Z,10.58
2022-12-08T13:30:09.775Z,10.10
2022-12-08T13:33:09.431Z,9.88
2022-12-08T13:35:23.923Z,9.81
2022-12-08T13:37:55.251Z,9.92
2022-12-08T13:40:23.431Z,9.85
2022-12-08T13:42:52.383Z,10.32
2022-12-08T13:45:43.551Z,9.74
2022-12-08T13:59:19.340Z,10.60
2022-12-08T14:01:46.056Z,10.89
2022-12-08T14:04:37.560Z,10.42
2022-12-08T14:07:00.770Z,10.60
2022-12-08T14:09:27.653Z,10.18
2022-12-08T14:12:04.387Z,10.12
2022-12-08T14:15:02.514Z,10.31
2022-12-08T14:17:19.172Z,10.41
2022-12-08T14:19:45.947Z,10.37
2022-12-08T14:24:58.318Z,9.79
2022-12-08T14:30:55.639Z,10.27
2022-12-08T14:33:25.740Z,9.97
2022-12-08T14:35:52.661Z,10.06
2022-12-08T14:41:37.029Z,10.60
2022-12-08T14:44:04.146Z,10.64
2022-12-08T14:46:33.312Z,10.54
2022-12-08T14:49:03.495Z,10.56
2022-12-08T14:51:31.065Z,10.51
2022-12-08T14:53:58.090Z,10.41
2022-12-08T14:56:24.837Z,10.26
2022-12-08T15:02:05.716Z,10.29
2022-12-08T15:07:49.859Z,10.32
2022-12-08T15:10:17.221Z,10.34
2022-12-08T15:12:46.475Z,10.32
2022-12-08T15:15:15.668Z,10.43
2022-12-08T15:17:44.506Z,10.46
2022-12-08T15:20:13.502Z,10.34
2022-12-08T15:25:52.774Z,10.22
2022-12-08T15:28:25.223Z,10.31
2022-12-08T15:31:08.415Z,10.27
2022-12-08T15:36:34.875Z,10.01
2022-12-08T15:39:04.376Z,10.14
2022-12-08T15:41:36.213Z,10.05
2022-12-08T15:44:09.243Z,10.01
2022-12-08T15:49:16.922Z,9.95
2022-12-08T15:51:48.156Z,9.99
2022-12-08T15:54:21.867Z,9.82
2022-12-08T15:57:18.073Z,9.83
2022-12-08T15:59:39.673Z,9.69
2022-12-08T16:05:40.352Z,9.87
2022-12-08T16:07:53.025Z,9.79
2022-12-08T16:10:23.207Z,9.93
2022-12-08T16:15:53.432Z,8.74
2022-12-08T16:18:31.669Z,8.86
2022-12-08T16:21:12.418Z,9.31
2022-12-08T16:23:51.674Z,9.53
2022-12-08T16:27:01.063Z,9.63
2022-12-08T16:29:10.856Z,9.63
2022-12-08T16:34:29.169Z,9.73
2022-12-08T16:36:57.828Z,9.82
2022-12-08T16:39:27.503Z,9.79
2022-12-08T16:42:00.437Z,9.74
2022-12-08T16:44:38.395Z,9.78
2022-12-08T16:47:06.895Z,9.81
2022-12-08T16:49:34.394Z,9.54
2022-12-08T16:52:01.487Z,9.73
2022-12-08T16:54:30.324Z,9.80
2022-12-08T16:56:57.048Z,9.78
2022-12-08T16:59:24.707Z,9.80
2022-12-08T17:01:59.926Z,9.87
2022-12-08T17:04:31.701Z,9.79
2022-12-08T17:07:01.863Z,9.75
2022-12-08T17:09:36.171Z,9.84
2022-12-08T17:12:04.579Z,9.84
2022-12-08T17:14:35.730Z,9.80
2022-12-08T17:17:05.963Z,9.83
2022-12-08T17:19:33.148Z,9.85
2022-12-08T17:22:02.543Z,9.88
2022-12-08T17:24:32.196Z,9.87
2022-12-08T17:26:59.132Z,9.85
2022-12-08T17:29:30.586Z,9.46
2022-12-08T17:31:58.449Z,9.72
2022-12-08T17:34:25.242Z,9.67
2022-12-08T17:40:01.413Z,7.97
2022-12-08T17:42:28.844Z,8.74
2022-12-08T17:44:55.429Z,9.30
2022-12-08T17:47:24.091Z,9.56
2022-12-08T17:52:46.884Z,9.61
2022-12-08T17:55:19.014Z,9.76
2022-12-08T17:57:52.807Z,9.69
2022-12-08T18:00:20.366Z,9.53
2022-12-08T18:18:45.270Z,6.88
2022-12-08T18:21:22.871Z,6.88
2022-12-08T18:23:51.559Z,7.80
2022-12-08T18:29:28.216Z,7.90
2022-12-08T18:31:58.621Z,8.07
2022-12-08T18:34:35.217Z,7.76
2022-12-08T18:39:32.201Z,8.39
2022-12-08T18:41:58.997Z,7.86
2022-12-08T18:44:26.573Z,7.70
2022-12-08T18:46:54.132Z,7.73
2022-12-08T18:49:23.135Z,7.49
2022-12-08T18:55:06.717Z,7.70
2022-12-08T18:57:35.413Z,7.74
2022-12-08T19:00:02.354Z,7.71
2022-12-08T19:02:34.911Z,7.74
2022-12-08T19:08:31.196Z,7.38
2022-12-08T19:14:14.569Z,7.73
2022-12-08T19:16:41.426Z,7.32
2022-12-08T19:19:08.366Z,7.24
2022-12-08T19:21:35.323Z,6.85
2022-12-08T19:26:45.088Z,6.63
2022-12-08T19:29:12.342Z,7.03
2022-12-08T19:31:39.498Z,7.02
2022-12-08T19:34:06.213Z,6.68
2022-12-08T19:36:49.159Z,7.04
2022-12-08T19:39:21.661Z,8.00
2022-12-08T19:48:18.545Z,9.00
2022-12-08T19:50:47.081Z,8.64
2022-12-08T19:53:13.956Z,9.27
2022-12-08T19:55:41.594Z,9.46
2022-12-08T19:58:09.972Z,8.45
2022-12-08T20:00:36.632Z,8.33
2022-12-08T20:03:03.622Z,8.09
2022-12-08T20:05:31.082Z,7.83
2022-12-08T20:08:09.565Z,8.72
2022-12-08T20:10:37.512Z,9.43
2022-12-08T20:13:04.322Z,9.65
2022-12-08T20:55:14.848Z,9.16
2022-12-08T21:19:09.060Z,9.75
2022-12-08T21:21:51.383Z,10.01
2022-12-08T21:24:18.385Z,9.93
2022-12-08T21:26:46.817Z,9.98
2022-12-08T21:29:13.751Z,10.08
2022-12-08T21:31:42.771Z,10.15
2022-12-08T21:34:09.638Z,10.12
2022-12-08T21:36:37.019Z,10.15
2022-12-08T21:39:04.015Z,10.24
2022-12-08T21:41:32.087Z,10.27
2022-12-08T21:43:59.188Z,10.36
2022-12-08T21:52:06.244Z,9.96
2022-12-08T21:54:33.395Z,10.01
2022-12-08T21:59:52.416Z,9.63
2022-12-08T22:02:22.479Z,9.49
2022-12-08T22:04:57.299Z,9.53
2022-12-08T22:07:26.621Z,9.50
2022-12-08T22:09:53.902Z,9.80
2022-12-08T22:15:02.933Z,9.78
2022-12-08T22:17:29.957Z,8.81
2022-12-08T22:22:48.474Z,7.97
2022-12-08T22:25:18.789Z,8.16
2022-12-08T22:27:48.647Z,7.22
2022-12-08T22:30:15.737Z,7.38
2022-12-08T22:32:44.631Z,7.50
2022-12-08T22:38:07.414Z,7.68
2022-12-08T22:46:31.732Z,8.84
2022-12-08T22:48:59.408Z,8.88
2022-12-08T22:51:26.123Z,8.98
2022-12-08T22:53:53.110Z,8.93
2022-12-08T22:56:20.719Z,8.52
2022-12-08T22:58:49.712Z,8.58
2022-12-08T23:01:16.472Z,8.25
2022-12-08T23:03:43.346Z,8.10
2022-12-08T23:06:19.765Z,7.68
2022-12-08T23:08:46.798Z,8.18
2022-12-08T23:11:15.680Z,7.38
2022-12-08T23:13:43.605Z,7.70
2022-12-08T23:16:10.946Z,8.22
2022-12-08T23:18:37.899Z,8.33
2022-12-08T23:21:05.095Z,8.09
2022-12-08T23:23:33.531Z,7.65
2022-12-08T23:29:17.857Z,7.03
2022-12-08T23:34:37.972Z,7.85
2022-12-08T23:37:07.255Z,8.09
2022-12-08T23:43:38.742Z,8.10
2022-12-08T23:46:05.818Z,7.67
2022-12-08T23:48:33.233Z,7.72
2022-12-08T23:54:17.874Z,8.28
2022-12-08T23:56:44.705Z,8.05
2022-12-08T23:59:13.739Z,8.45
